Burdick, Kansas
Current Conditions -  °F | °C
As of 12:58 AM on Sunday 26 Oct 2014 (Local Time) from KFRI Reporting Station
Clear Clear  
Wind Chill: 61°   Ceiling: Unl
Heat Index: 61°   Visibility: 10mi
Dew Point: 61°   Wind: 5mph
Humidity: 100%   Direction: 50°NE
Pressure: 29.93"   Gusts: NA
Location:  38.56°N, 96.85°W
Report Text: KFRI 260558Z AUTO 05004KT 10SM CLR 16/16 A2993 RMK AO2 SLP126 60000 T01600160 10233 20154 403140098 57007
Loading
Personal Weather Stations






























Interactive Weather Map
Tropical Storm Tracking
New forecast layout! Learn more

10-Day Weather Forecast

Advertisements
Track Severe Weather on mobile